Weather at Notodden Airport

Public forecast

Using degrees Celsius for public forecast. Weather courtesy of forecast.io.

Current aviation weather report (METAR) for Notodden Airport

Report is more than 6 hours old.

Retrieved 2021/12/05 15:20 UTC (12 hours ago):

ENNO 051520Z VRB01KT 9999 VCSH BKN025 M05/M08 Q1023

Closest aviation forecast (TAF) to Notodden Airport

Closest forecast is Sandefjord Airport, Torp, 39.3 nm (72.7 km) SE. Retrieved 2021-12-06 00:00 UTC (3 hours ago):

TAF TAF ENTO 052300Z 0600/0624 04008KT 9999 BKN020 TEMPO 0606/0624 2500 -SN BKN008